Uniondale, Indiana
Current Conditions -  °F | °C
As of 4:15 PM on Sunday 23 Nov 2014 (Local Time) from KHHG Reporting Station
Moderate Rain Moderate Rain  
Wind Chill: 51°   Ceiling: 800
Heat Index: 51°   Visibility: 5mi
Dew Point: 51°   Wind: 7mph
Humidity: 97%   Direction: 150°SSE
Pressure: 29.58"   Gusts: NA
Location:  40.83°N, 85.24°W
Report Text: KHHG 232115Z AUTO 15006KT 5SM RA OVC008 11/10 A2958 RMK AO2 P0004 T01080104
Loading
Personal Weather Stations






























Interactive Weather Map New forecast layout! Learn more

10-Day Weather Forecast

Advertisements
Track Severe Weather on mobile